Map

Track Data

SID SEASON NUMBER BASIN SUBBASIN NAME ISO_TIME NATURE LAT LON WMO_WIND WMO_PRES WMO_AGENCY TRACK_TYPE DIST2LAND LANDFALL IFLAG USA_AGENCY USA_ATCF_ID USA_LAT USA_LON USA_RECORD USA_STATUS USA_WIND USA_PRES USA_SSHS USA_R34_NE USA_R34_SE USA_R34_SW USA_R34_NW USA_R50_NE USA_R50_SE USA_R50_SW USA_R50_NW USA_R64_NE USA_R64_SE USA_R64_SW USA_R64_NW USA_POCI USA_ROCI USA_RMW USA_EYE TOKYO_LAT TOKYO_LON TOKYO_GRADE TOKYO_WIND TOKYO_PRES TOKYO_R50_DIR TOKYO_R50_LONG TOKYO_R50_SHORT TOKYO_R30_DIR TOKYO_R30_LONG TOKYO_R30_SHORT TOKYO_LAND CMA_LAT CMA_LON CMA_CAT CMA_WIND CMA_PRES HKO_LAT HKO_LON HKO_CAT HKO_WIND HKO_PRES NEWDELHI_LAT NEWDELHI_LON NEWDELHI_GRADE NEWDELHI_WIND NEWDELHI_PRES NEWDELHI_CI NEWDELHI_DP NEWDELHI_POCI REUNION_LAT REUNION_LON REUNION_TYPE REUNION_WIND REUNION_PRES REUNION_TNUM REUNION_CI REUNION_RMW REUNION_R34_NE REUNION_R34_SE REUNION_R34_SW REUNION_R34_NW REUNION_R50_NE REUNION_R50_SE REUNION_R50_SW REUNION_R50_NW REUNION_R64_NE REUNION_R64_SE REUNION_R64_SW REUNION_R64_NW BOM_LAT BOM_LON BOM_TYPE BOM_WIND BOM_PRES BOM_TNUM BOM_CI BOM_RMW BOM_R34_NE BOM_R34_SE BOM_R34_SW BOM_R34_NW BOM_R50_NE BOM_R50_SE BOM_R50_SW BOM_R50_NW BOM_R64_NE BOM_R64_SE BOM_R64_SW BOM_R64_NW BOM_ROCI BOM_POCI BOM_EYE BOM_POS_METHOD BOM_PRES_METHOD NADI_LAT NADI_LON NADI_CAT NADI_WIND NADI_PRES WELLINGTON_LAT WELLINGTON_LON WELLINGTON_WIND WELLINGTON_PRES DS824_LAT DS824_LON DS824_STAGE DS824_WIND DS824_PRES TD9636_LAT TD9636_LON TD9636_STAGE TD9636_WIND TD9636_PRES TD9635_LAT TD9635_LON TD9635_WIND TD9635_PRES TD9635_ROCI NEUMANN_LAT NEUMANN_LON NEUMANN_CLASS NEUMANN_WIND NEUMANN_PRES MLC_LAT MLC_LON MLC_CLASS MLC_WIND MLC_PRES USA_GUST BOM_GUST BOM_GUST_PER REUNION_GUST REUNION_GUST_PER USA_SEAHGT USA_SEARAD_NE USA_SEARAD_SE USA_SEARAD_SW USA_SEARAD_NW STORM_SPEED STORM_DIR
1960327N09161 1960 93 WP MM OPHELIA 1960-11-21 12:00:00 TS 9.20000 160.500 main 1688 1667 O________OOO__ jtwc_wp WP261960 9.20000 160.500 20 -1 9.20000 160.500 TC 20 9.20000 160.500 1 20 9.20000 160.500 20 1001 120 11 284
1960327N09161 1960 93 WP MM OPHELIA 1960-11-21 15:00:00 TS 9.32744 159.983 main 1667 1648 P________PPP__ WP261960 9.30516 159.985 20 -1 9.30516 159.985 TC 20 9.33682 159.960 1 20 9.36260 160.003 20 1001 120 10 283
1960327N09161 1960 93 WP MM OPHELIA 1960-11-21 18:00:00 TS 9.43963 159.486 main 1648 1634 O________OPO__ jtwc_wp WP261960 9.40000 159.500 XX 20 -5 9.40000 159.500 TC 20 9.45854 159.446 1 20 9.50000 159.500 20 1001 120 10 282
1960327N09161 1960 93 WP MM OPHELIA 1960-11-21 21:00:00 TS 9.52084 159.032 main 1629 1612 P________PPP__ WP261960 9.47244 159.070 XX 20 -5 9.47244 159.070 TC 20 9.55095 158.984 1 20 9.58753 159.005 20 1001 120 8 278
1960327N09161 1960 93 WP MM OPHELIA 1960-11-22 00:00:00 TS 9.55000 158.650 main 1622 1590 O________OOO__ jtwc_wp WP261960 9.50000 158.700 XX 20 -5 9.50000 158.700 TC 20 9.60000 158.600 1 20 9.60000 158.600 20 1001 120 7 269
1960327N09161 1960 93 WP MM OPHELIA 1960-11-22 03:00:00 TS 9.51377 158.329 main 1590 1570 P________PPP__ WP261960 9.47251 158.332 XX 17 -5 9.47251 158.332 TC 17 9.59514 158.319 1 18 9.51493 158.332 17 1001 150 5 257
1960327N09161 1960 93 WP MM OPHELIA 1960-11-22 06:00:00 TS 9.43484 158.138 main 1570 1570 O________OPO__ jtwc_wp WP261960 9.40000 158.100 XX 15 -5 9.40000 158.100 TC 15 9.53935 158.152 1 17 9.40000 158.200 15 1001 180 3 236
1960327N09161 1960 93 WP MM OPHELIA 1960-11-22 09:00:00 TS 9.35655 158.092 main 1570 1560 P________PPP__ WP261960 9.31493 158.068 XX 15 -5 9.31493 158.068 TC 15 9.43892 158.109 1 16 9.35744 158.125 15 1000 210 2 162
1960327N09161 1960 93 WP MM OPHELIA 1960-11-22 12:00:00 TS 9.25000 158.200 main 1565 1556 O________OOO__ jtwc_wp WP261960 9.20000 158.200 XX 15 -5 9.20000 158.200 TC 15 9.30000 158.200 1 15 9.30000 158.200 15 1000 240 4 128
1960327N09161 1960 93 WP MM OPHELIA 1960-11-22 15:00:00 TS 9.10978 158.410 main 1557 1552 P________PPP__ WP261960 9.05745 158.390 XX 17 -5 9.05745 158.390 TC 17 9.14423 158.421 1 16 9.18000 158.440 17 999 240 6 120
1960327N09161 1960 93 WP MM OPHELIA 1960-11-22 18:00:00 TS 8.93819 158.741 main 1554 1554 O________OPO__ jtwc_wp WP261960 8.90000 158.700 XX 20 -5 8.90000 158.700 TC 20 8.95277 158.765 1 17 9.00000 158.800 20 998 240 8 117
1960327N09161 1960 93 WP MM OPHELIA 1960-11-22 21:00:00 TS 8.74808 159.143 main 1558 1558 P________PPP__ WP261960 8.75751 159.112 XX 20 -5 8.75751 159.112 TC 20 8.73487 159.177 1 18 8.74245 159.170 20 998 240 9 115
1960327N09161 1960 93 WP MM OPHELIA 1960-11-23 00:00:00 TS 8.55000 159.600 main 1577 1568 O________OOO__ jtwc_wp WP261960 8.60000 159.600 XX 20 -5 8.60000 159.600 TC 20 8.50000 159.600 1 20 8.50000 159.600 20 998 240 10 111
1960327N09161 1960 93 WP MM OPHELIA 1960-11-23 03:00:00 TS 8.38176 160.116 main 1589 1586 P________PPP__ WP261960 8.43008 160.130 XX 20 -5 8.43008 160.130 TC 20 8.24425 160.072 1 20 8.42262 160.130 20 998 240 10 111
1960327N09161 1960 93 WP MM OPHELIA 1960-11-23 06:00:00 TS 8.16941 160.581 main 1603 1592 O________OPO__ jtwc_wp WP261960 8.20000 160.600 XX 20 -5 8.20000 160.600 TC 20 7.97765 160.526 1 20 8.30000 160.600 20 999 240 10 124
1960327N09161 1960 93 WP MM OPHELIA 1960-11-23 09:00:00 TS 7.83236 160.926 main 1588 1568 P________PPP__ WP261960 7.84993 160.963 XX 20 -5 7.84993 160.963 TC 20 7.72218 160.866 1 20 7.90741 160.913 20 999 240 8 145
1960327N09161 1960 93 WP MM OPHELIA 1960-11-23 12:00:00 TS 7.50000 161.050 main 1575 1544 O________OOO__ jtwc_wp WP261960 7.50000 161.100 XX 20 -5 7.50000 161.100 TC 20 7.50000 161.000 1 20 7.50000 161.000 20 999 240 6 0
1960327N09161 1960 93 WP MM OPHELIA 1960-11-23 15:00:00 TS 7.27816 160.923 main 1544 1506 P________PPP__ WP261960 7.25491 160.970 XX 20 -5 7.25491 160.970 TC 20 7.29789 160.888 1 18 7.30492 160.862 20 999 270 6 233
1960327N09161 1960 93 WP MM OPHELIA 1960-11-23 18:00:00 TS 7.13418 160.565 main 1506 1463 O________OPO__ jtwc_wp WP261960 7.10000 160.600 XX 20 -5 7.10000 160.600 TC 20 7.13671 160.559 1 17 7.20000 160.500 20 1000 300 9 254
1960327N09161 1960 93 WP MM OPHELIA 1960-11-23 21:00:00 TS 7.03549 160.083 main 1463 1423 P________PPP__ WP261960 7.01991 160.132 XX 17 -5 7.01991 160.132 TC 17 7.03219 160.050 1 16 7.06997 160.017 17 1000 330 11 263
1960327N09161 1960 93 WP MM OPHELIA 1960-11-24 00:00:00 TS 7.00000 159.450 main 1423 1379 O________OOO__ jtwc_wp WP261960 7.00000 159.500 XX 15 -5 7.00000 159.500 TC 15 7.00000 159.400 1 15 7.00000 159.400 15 1001 360 13 268
1960327N09161 1960 93 WP MM OPHELIA 1960-11-24 03:00:00 TS 6.99823 158.734 main 1373 1336 P________PPP__ WP261960 6.95491 158.760 XX 15 -5 6.95491 158.760 TC 15 7.07834 158.648 1 15 7.00476 158.767 15 1001 390 15 273
1960327N09161 1960 93 WP MM OPHELIA 1960-11-24 06:00:00 TS 7.08030 157.894 main 1336 1301 O________OPO__ jtwc_wp WP261960 7.00000 157.900 XX 15 -5 7.00000 157.900 TC 15 7.22122 157.776 1 15 7.10000 158.000 15 1002 420 18 280
1960327N09161 1960 93 WP MM OPHELIA 1960-11-24 09:00:00 TS 7.30227 156.929 main 1300 1275 P________PPP__ WP261960 7.25769 156.928 XX 15 -5 7.25769 156.928 TC 15 7.37833 156.866 1 15 7.31535 156.993 15 1002 390 19 283
1960327N09161 1960 93 WP MM OPHELIA 1960-11-24 12:00:00 TS 7.50000 156.000 main 1275 1243 O________OOO__ jtwc_wp WP261960 7.50000 156.000 15 -1 7.50000 156.000 TC 15 7.50000 156.000 1 15 7.50000 156.000 15 1003 360 16 277
1960327N09161 1960 93 WP MM OPHELIA 1960-11-24 15:00:00 TS 7.48984 155.295 main 1243 1207 P________PPP__ WP261960 7.48717 155.305 15 -1 7.48717 155.305 TC 15 7.50537 155.272 1 15 7.47963 155.297 15 1003 360 13 266
1960327N09161 1960 93 WP MM OPHELIA 1960-11-24 18:00:00 TS 7.41796 154.676 main 1207 1186 O________OPO__ jtwc_wp WP261960 7.40000 154.700 15 -1 7.40000 154.700 TC 15 7.47184 154.602 1 15 7.40000 154.700 15 1004 360 13 266
1960327N09161 1960 93 WP MM OPHELIA 1960-11-24 21:00:00 TS 7.39558 154.022 main 1183 1162 P________PPP__ WP261960 7.38497 154.035 15 -1 7.38497 154.035 TC 15 7.42741 153.981 1 15 7.38497 154.035 15 1004 390 14 270
1960327N09161 1960 93 WP MM OPHELIA 1960-11-25 00:00:00 TS 7.41111 153.244 1006 tokyo main 1160 1151 OOO______OOO__ jtwc_wp WP261960 7.40000 153.400 15 -1 7.50000 152.000 2 1006 0 0 0 7.50000 152.000 0 19 1006 7.40000 153.400 TC 15 7.40000 153.400 1 15 7.40000 153.400 15 1004 420 14 273
1960327N09161 1960 93 WP MM OPHELIA 1960-11-25 03:00:00 TS 7.46952 152.618 main 1158 1150 PPP______PPP__ WP261960 7.44240 152.828 15 -1 7.58003 151.790 2 1004 0 0 7.58003 151.790 0 19 1006 7.44240 152.828 TC 15 7.44036 152.819 1 15 7.44240 152.828 15 1003 390 11 277
1960327N09161 1960 93 WP MM OPHELIA 1960-11-25 06:00:00 TS 7.55449 152.105 1003 tokyo main 1161 1157 OOO______OPO__ jtwc_wp WP261960 7.50000 152.300 15 -1 7.70000 151.600 2 1003 0 0 0 7.70000 151.600 0 19 1006 7.50000 152.300 TC 15 7.49970 152.275 1 15 7.50000 152.300 15 1003 360 10 282
1960327N09161 1960 93 WP MM OPHELIA 1960-11-25 09:00:00 TS 7.66689 151.676 main 1168 1166 PPP______PPP__ WP261960 7.55739 151.800 15 -1 7.88499 151.443 2 1004 0 0 7.88499 151.443 0 19 1005 7.55739 151.800 TC 15 7.55920 151.769 1 15 7.55739 151.800 15 1003 300 8 285
1960327N09161 1960 93 WP MM OPHELIA 1960-11-25 12:00:00 TS 7.76667 151.300 1005 tokyo main 1177 1175 OOO______OOO__ jtwc_wp WP261960 7.60000 151.300 15 -1 8.10000 151.300 2 1005 0 0 0 8.10000 151.300 0 19 1005 7.60000 151.300 TC 15 7.60000 151.300 1 15 7.60000 151.300 15 1003 240 8 282
1960327N09161 1960 93 WP MM OPHELIA 1960-11-25 15:00:00 TS 7.83612 150.879 main 1175 1171 PPP______PPP__ WP261960 7.61510 150.713 15 -1 8.29998 151.157 2 1003 0 0 8.30749 151.150 0 21 1003 7.61510 150.713 TC 15 7.56396 150.827 1 16 7.61510 150.713 15 1002 270 8 279
1960327N09161 1960 93 WP MM OPHELIA 1960-11-25 18:00:00 TS 7.88540 150.499 1002 tokyo main 1172 1162 OOO______OPO__ jtwc_wp WP261960 7.60000 150.200 15 -1 8.50000 151.000 2 1002 0 0 0 8.50000 151.000 1 23 1002 7.60000 150.200 TC 15 7.51242 150.395 1 17 7.60000 150.200 15 1002 300 6 276
1960327N09161 1960 93 WP MM OPHELIA 1960-11-25 21:00:00 TS 7.90322 150.230 main 1162 1157 PPP______PPP__ WP261960 7.52739 149.897 17 -1 8.70750 150.808 2 1002 0 0 8.64997 150.865 1 23 1002 7.52739 149.897 TC 17 7.47966 150.015 1 18 7.52739 149.897 17 1001 330 5 278
1960327N09161 1960 93 WP MM OPHELIA 1960-11-26 00:00:00 TS 7.95000 150.017 1003 tokyo main 1168 1162 OOO______OOO__ jtwc_wp WP261960 7.50000 149.700 20 -1 8.90000 150.600 2 1003 0 0 0 8.80000 150.700 1 23 1002 7.50000 149.700 TC 20 7.50000 149.700 1 20 7.50000 149.700 20 1001 360 5 292
1960327N09161 1960 93 WP MM OPHELIA 1960-11-26 03:00:00 TS 8.07793 149.795 main 1173 1171 PPP______PPP__ WP261960 7.61249 149.485 20 -1 9.05749 150.400 2 1002 0 0 9.00002 150.458 1 23 1002 7.61249 149.485 TC 20 7.57262 149.460 1 20 7.61249 149.485 20 1001 390 5 306
1960327N09161 1960 93 WP MM OPHELIA 1960-11-26 06:00:00 TS 8.25121 149.597 1002 tokyo main 1190 1188 OOO______OPO__ jtwc_wp WP261960 7.80000 149.300 20 -1 9.20000 150.200 2 1002 0 0 0 9.20000 150.200 1 23 1002 7.80000 149.300 TC 20 7.70727 149.282 1 20 7.80000 149.300 20 1001 420 5 313
1960327N09161 1960 93 WP MM OPHELIA 1960-11-26 09:00:00 TS 8.41679 149.426 main 1197 1197 PPP______PPP__ WP261960 7.95499 149.142 20 -1 9.35749 150.000 2 1002 0 0 9.36497 149.992 1 23 1002 7.95499 149.142 TC 20 7.91330 149.138 1 20 7.95499 149.142 20 1000 420 5 320
1960327N09161 1960 93 WP MM OPHELIA 1960-11-26 12:00:00 TS 8.63333 149.267 1002 tokyo main 1217 1217 OOO______OOO__ jtwc_wp WP261960 8.20000 149.000 20 -1 9.50000 149.800 2 1002 0 0 0 9.50000 149.800 1 23 1002 8.20000 149.000 TC 20 8.20000 149.000 1 20 8.20000 149.000 20 1000 420 6 329
1960327N09161 1960 93 WP MM OPHELIA 1960-11-26 15:00:00 TS 8.94826 149.102 main 1246 1246 PPP______PPP__ WP261960 8.61249 148.857 20 -1 9.59996 149.615 2 1001 0 0 9.59996 149.615 1 26 1001 8.61249 148.857 TC 20 8.65218 148.809 1 21 8.61249 148.857 20 999 420 8 333
1960327N09161 1960 93 WP MM OPHELIA 1960-11-26 18:00:00 TS 9.31126 148.920 1000 tokyo main 1288 1288 OOO______OPO__ jtwc_wp WP261960 9.10000 148.700 20 -1 9.70000 149.400 2 1000 0 0 0 9.70000 149.400 1 29 1000 9.10000 148.700 TC 20 9.16754 148.621 1 22 9.10000 148.700 20 998 420 9 332
1960327N09161 1960 93 WP MM OPHELIA 1960-11-26 21:00:00 TS 9.70904 148.686 main 1330 1330 PPP______PPP__ WP261960 9.62502 148.485 22 -1 9.86503 149.108 2 1000 0 0 9.86503 149.108 1 29 1000 9.62502 148.485 TC 22 9.64912 148.447 1 23 9.62502 148.485 22 995 450 8 327
1960327N09161 1960 93 WP MM OPHELIA 1960-11-27 00:00:00 TS 10.0000 148.467 1000 tokyo main 1361 1359 OOO______OOO__ jtwc_wp WP261960 10.0000 148.300 25 -1 10.0000 148.800 2 1000 0 0 0 10.0000 148.800 1 29 1000 10.0000 148.300 TC 25 10.0000 148.300 1 25 10.0000 148.300 25 992 480 5 313
1960327N09161 1960 93 WP MM OPHELIA 1960-11-27 03:00:00 TS 10.0400 148.327 main 1359 1358 PPP______PPP__ WP261960 10.0250 148.235 27 -1 10.0375 148.527 2 1000 0 0 10.0300 148.527 1 29 1000 10.0250 148.235 TC 27 10.0977 148.200 1 26 10.0250 148.235 28 988 510 2 260
1960327N09161 1960 93 WP MM OPHELIA 1960-11-27 06:00:00 TS 9.95957 148.221 1000 tokyo main 1358 1346 OOO______OPO__ jtwc_wp WP261960 9.90000 148.200 30 -1 10.0000 148.300 2 1000 0 0 0 10.0000 148.300 1 29 1000 9.90000 148.200 TC 30 10.0574 148.127 1 28 9.90000 148.200 32 985 540 3 236
1960327N09161 1960 93 WP MM OPHELIA 1960-11-27 09:00:00 TS 9.89348 148.105 main 1346 1335 PPP______PPP__ WP261960 9.85000 148.107 30 -1 9.90748 148.120 2 1000 0 0 9.96498 148.120 1 29 999 9.85000 148.107 TC 30 9.93838 148.066 1 30 9.85000 148.107 32 985 570 3 237
1960327N09161 1960 93 WP MM OPHELIA 1960-11-27 12:00:00 TS 9.81667 148.000 1000 tokyo main 1335 1334 OOO______OOO__ jtwc_wp WP261960 9.80000 148.000 30 -1 9.80000 148.000 2 1000 0 0 0 9.90000 148.000 1 29 998 9.80000 148.000 TC 30 9.80000 148.000 1 32 9.80000 148.000 32 985 600 2 234
1960327N09161 1960 93 WP MM OPHELIA 1960-11-27 15:00:00 TS 9.75718 147.914 main 1334 1322 PPP______PPP__ WP261960 9.75750 147.900 35 -1 9.74249 147.935 2 1000 0 0 9.79998 147.943 1 33 997 9.75750 147.900 TC 35 9.72813 147.907 1 35 9.75750 147.900 36 987 570 2 233
1960327N09161 1960 93 WP MM OPHELIA 1960-11-27 18:00:00 TS 9.69167 147.835 1000 tokyo main 1322 1311 OOO______OPO__ jtwc_wp WP261960 9.70000 147.800 40 -1 9.70000 147.900 2 1000 0 0 0 9.70000 147.900 2 38 996 9.70000 147.800 TC 40 9.65000 147.807 1 38 9.70000 147.800 40 990 540 2 230
1960327N09161 1960 93 WP MM OPHELIA 1960-11-27 21:00:00 TS 9.61323 147.740 main 1311 1300 PPP______PPP__ WP261960 9.60000 147.692 42 -1 9.65750 147.858 2 997 0 0 9.65001 147.800 2 38 995 9.60000 147.692 TC 42 9.57187 147.704 1 41 9.60000 147.692 42 992 510 2 229
1960327N09161 1960 93 WP MM OPHELIA 1960-11-28 00:00:00 TS 9.53333 147.650 995 tokyo main 1300 1300 OOO______OOO__ jtwc_wp WP261960 9.50000 147.600 45 -1 9.60000 147.800 9 995 0 0 0 9.60000 147.700 2 38 995 9.50000 147.600 TC 45 9.50000 147.600 2 45 9.50000 147.600 45 994 480 2 224
1960327N09161 1960 93 WP MM OPHELIA 1960-11-28 03:00:00 TS 9.46420 147.593 main 1300 1288 PPP______PPP__ WP261960 9.44248 147.558 47 -1 9.50749 147.715 9 995 0 0 9.50748 147.658 2 38 995 9.44248 147.558 TC 47 9.44277 147.512 2 47 9.44248 147.558 48 994 510 2 224
1960327N09161 1960 93 WP MM OPHELIA 1960-11-28 06:00:00 TS 9.39874 147.520 995 tokyo main 1288 1277 OOO______OPO__ jtwc_wp WP261960 9.40000 147.500 50 -1 9.40000 147.600 9 995 0 0 0 9.40000 147.600 2 38 995 9.40000 147.500 TC 50 9.39244 147.423 2 50 9.40000 147.500 52 995 540 2 236
1960327N09161 1960 93 WP MM OPHELIA 1960-11-28 09:00:00 TS 9.32766 147.386 main 1277 1277 PPP______PPP__ WP261960 9.35002 147.357 52 -1 9.28500 147.457 9 992 0 0 9.28501 147.465 2 43 992 9.35002 147.357 TC 52 9.34589 147.322 2 52 9.35002 147.357 53 992 570 3 245
1960327N09161 1960 93 WP MM OPHELIA 1960-11-28 12:00:00 TS 9.26667 147.233 990 tokyo main 1277 1266 OOO______OOO__ jtwc_wp WP261960 9.30000 147.200 55 -1 9.20000 147.300 9 990 0 0 0 9.20000 147.300 3 48 990 9.30000 147.200 TC 55 9.30000 147.200 2 55 9.30000 147.200 55 989 600 3 246
1960327N09161 1960 93 WP MM OPHELIA 1960-11-28 15:00:00 TS 9.21557 147.135 main 1266 1266 PPP______PPP__ WP261960 9.24996 147.115 57 -1 9.17745 147.173 9 985 0 0 9.17745 147.173 3 53 986 9.24996 147.115 TC 57 9.18865 147.119 2 57 9.24996 147.115 57 984 570 2 250
1960327N09161 1960 93 WP MM OPHELIA 1960-11-28 18:00:00 TS 9.18113 147.001 980 tokyo main 1266 1255 OOO______OPO__ jtwc_wp WP261960 9.20000 147.000 60 -1 9.20000 147.000 9 980 0 0 0 9.20000 147.000 3 58 983 9.20000 147.000 TC 60 9.08678 147.007 2 60 9.20000 147.000 60 980 540 3 256
1960327N09161 1960 93 WP MM OPHELIA 1960-11-28 21:00:00 TS 9.13019 146.793 main 1255 1255 PPP______PPP__ WP261960 9.10489 146.817 62 -1 9.21245 146.745 9 977 0 0 9.21245 146.745 3 63 979 9.10489 146.817 TC 62 9.04156 146.816 2 62 9.10489 146.817 62 976 510 5 268
1960327N09161 1960 93 WP MM OPHELIA 1960-11-29 00:00:00 TS 9.16667 146.467 975 tokyo main 1266 1266 OOO______OOO__ jtwc_wp WP261960 9.10000 146.500 65 -1 9.30000 146.400 9 975 0 0 0 9.30000 146.400 4 68 976 9.10000 146.500 TC 65 9.10000 146.500 3 65 9.10000 146.500 65 972 480 8 288
1960327N09161 1960 93 WP MM OPHELIA 1960-11-29 03:00:00 TS 9.38317 146.023 main 1290 1290 PPP______PPP__ WP261960 9.28247 146.017 70 -1 9.53471 146.032 9 972 0 0 9.53485 146.010 4 72 972 9.28247 146.017 TC 70 9.38206 146.046 3 68 9.28247 146.017 70 969 510 11 298
1960327N09161 1960 93 WP MM OPHELIA 1960-11-29 06:00:00 TS 9.69287 145.444 970 tokyo main 1328 1328 OOO______OPO__ jtwc_wp WP261960 9.60000 145.400 75 -1 9.80000 145.500 9 970 0 0 0 9.80000 145.500 4 77 969 9.60000 145.400 TC 75 9.75718 145.462 3 72 9.60000 145.400 75 966 540 14 298
1960327N09161 1960 93 WP MM OPHELIA 1960-11-29 09:00:00 TS 10.0309 144.764 main 1370 1370 PPP______PPP__ WP261960 10.0373 144.753 77 -1 9.97277 144.695 9 967 0 0 9.97240 144.860 4 87 965 10.0373 144.753 TC 77 10.1287 144.771 3 76 10.0373 144.753 77 963 570 16 293
1960327N09161 1960 93 WP MM OPHELIA 1960-11-29 12:00:00 TS 10.3000 143.983 965 tokyo main 1418 1418 OOO______OOO__ jtwc_wp WP261960 10.4000 144.000 80 -1 10.1000 143.800 9 965 0 0 0 10.1000 144.100 5 97 962 10.4000 144.000 TC 80 10.4000 144.000 4 80 10.4000 144.000 80 960 600 16 283
1960327N09161 1960 93 WP MM OPHELIA 1960-11-29 15:00:00 TS 10.3850 143.141 main 1450 1419 PPP______PPP__ WP261960 10.4825 143.122 95 -1 10.2372 143.035 9 960 0 0 10.2375 143.265 5 106 958 10.4825 143.122 TC 95 10.3876 143.178 4 90 10.4825 143.122 95 957 570 17 272
1960327N09161 1960 93 WP MM OPHELIA 1960-11-29 18:00:00 TS 10.3455 142.265 955 tokyo main 1408 1371 OOO______OPO__ jtwc_wp WP261960 10.4000 142.200 110 -1 10.3000 142.300 9 955 0 0 0 10.3000 142.400 6 116 955 10.4000 142.200 TC 110 10.2731 142.292 4 101 10.4000 142.200 110 954 540 17 264
1960327N09161 1960 93 WP MM OPHELIA 1960-11-29 21:00:00 TS 10.2060 141.414 main 1368 1327 PPP______PPP__ WP261960 10.2348 141.327 115 -1 10.1924 141.542 9 952 0 0 10.1924 141.577 6 121 951 10.2348 141.327 TC 115 10.1469 141.385 4 111 10.2348 141.327 116 951 510 17 261
1960327N09161 1960 93 WP MM OPHELIA 1960-11-30 00:00:00 TS 10.1000 140.600 950 tokyo main 1327 1303 OOO______OOO__ jtwc_wp WP261960 10.1000 140.500 120 -1 10.1000 140.800 9 950 0 0 0 10.1000 140.800 6 126 948 10.1000 140.500 TC 120 10.1000 140.500 4 122 10.1000 140.500 122 948 480 15 269
1960327N09161 1960 93 WP MM OPHELIA 1960-11-30 03:00:00 TS 10.1664 139.852 main 1309 1295 PPP______PPP__ WP261960 10.1172 139.742 122 -1 10.1897 140.115 9 947 0 0 10.1972 140.093 6 126 945 10.1172 139.742 TC 122 10.2600 139.677 4 123 10.1172 139.742 123 943 480 15 280
1960327N09161 1960 93 WP MM OPHELIA 1960-11-30 06:00:00 TS 10.3682 139.114 945 tokyo main 1302 1296 OOO______OPO__ jtwc_wp WP261960 10.3000 139.000 125 -1 10.4000 139.400 9 945 0 0 0 10.4000 139.400 6 126 942 10.3000 139.000 TC 125 10.5093 138.884 4 125 10.3000 139.000 125 939 480 16 289
1960327N09161 1960 93 WP MM OPHELIA 1960-11-30 09:00:00 TS 10.6964 138.325 main 1311 1262 PPP______PPP__ WP261960 10.6775 138.193 127 -1 10.7000 138.565 9 942 0 0 10.6422 138.680 6 126 941 10.6775 138.193 TC 127 10.8039 138.124 4 126 10.6775 138.193 126 938 510 17 294
1960327N09161 1960 93 WP MM OPHELIA 1960-11-30 12:00:00 TS 11.0500 137.533 940 tokyo main 1254 1184 OOO______OOO__ jtwc_wp WP261960 11.1000 137.400 130 -1 11.0000 137.700 9 940 0 0 0 10.9000 137.900 6 126 940 11.1000 137.400 TC 130 11.1000 137.400 4 128 11.1000 137.400 128 937 540 16 291
1960327N09161 1960 93 WP MM OPHELIA 1960-11-30 15:00:00 TS 11.2826 136.759 main 1184 1113 PPP______PPP__ WP261960 11.3798 136.670 130 -1 11.1424 136.870 9 940 0 0 11.0777 136.992 6 131 939 11.3798 136.670 TC 130 11.3358 136.686 4 129 11.3798 136.670 129 937 510 15 287
1960327N09161 1960 93 WP MM OPHELIA 1960-11-30 18:00:00 TS 11.4941 136.035 940 tokyo main 1103 1044 OOO______OPO__ jtwc_wp WP261960 11.6000 136.000 130 -1 11.3000 136.100 9 940 0 0 0 11.3000 136.100 6 136 938 11.6000 136.000 TC 130 11.5645 136.010 4 130 11.6000 136.000 130 938 480 14 289
1960327N09161 1960 93 WP MM OPHELIA 1960-11-30 21:00:00 TS 11.7608 135.377 main 1047 987 PPP______PPP__ WP261960 11.8148 135.385 130 -1 11.6348 135.405 9 937 0 0 11.6999 135.325 6 136 936 11.8148 135.385 TC 130 11.7860 135.379 4 131 11.8148 135.385 131 937 450 13 293
1960327N09161 1960 93 WP MM OPHELIA 1960-12-01 00:00:00 TS 12.0167 134.783 935 tokyo main 987 925 OOO______OOO__ jtwc_wp WP261960 12.0000 134.800 130 -1 12.0000 134.800 9 935 0 0 0 12.1000 134.700 6 136 935 12.0000 134.800 TC 130 12.0000 134.800 4 132 12.0000 134.800 132 936 420 12 291
1960327N09161 1960 93 WP MM OPHELIA 1960-12-01 03:00:00 TS 12.2014 134.197 main 925 874 PPP______PPP__ WP261960 12.1426 134.162 132 -1 12.2724 134.240 9 935 0 0 12.3297 134.240 6 136 935 12.1426 134.162 TC 132 12.1785 134.218 4 131 12.1426 134.162 133 937 450 11 289
1960327N09161 1960 93 WP MM OPHELIA 1960-12-01 06:00:00 TS 12.3758 133.699 935 tokyo main 874 836 OOO______OPO__ jtwc_wp WP261960 12.3000 133.600 135 -1 12.5000 133.800 9 935 0 0 0 12.5000 133.900 6 136 935 12.3000 133.600 TC 135 12.3548 133.692 4 131 12.3000 133.600 135 939 480 9 294
1960327N09161 1960 93 WP MM OPHELIA 1960-12-01 09:00:00 TS 12.5817 133.320 main 836 809 PPP______PPP__ WP261960 12.5198 133.197 132 -1 12.6923 133.512 9 937 0 0 12.6850 133.570 6 136 937 12.5198 133.197 TC 132 12.5537 133.246 4 130 12.5198 133.197 132 941 480 8 305
1960327N09161 1960 93 WP MM OPHELIA 1960-12-01 12:00:00 TS 12.8333 133.033 940 tokyo main 809 794 OOO______OOO__ jtwc_wp WP261960 12.8000 132.900 130 -1 12.9000 133.300 9 940 0 0 0 12.9000 133.300 6 136 939 12.8000 132.900 TC 130 12.8000 132.900 4 130 12.8000 132.900 130 943 480 8 316
1960327N09161 1960 93 WP MM OPHELIA 1960-12-01 15:00:00 TS 13.1443 132.758 main 797 780 PPP______PPP__ WP261960 13.1275 132.598 127 -1 13.1775 133.035 9 940 0 0 13.1775 133.077 6 131 940 13.1275 132.598 TC 127 13.1283 132.642 4 128 13.1275 132.598 127 943 480 8 326
1960327N09161 1960 93 WP MM OPHELIA 1960-12-01 18:00:00 TS 13.5007 132.564 940 tokyo main 783 773 OOO______OPO__ jtwc_wp WP261960 13.5000 132.400 125 -1 13.5000 132.800 9 940 0 0 0 13.5000 132.900 6 126 942 13.5000 132.400 TC 125 13.5044 132.485 4 127 13.5000 132.400 125 944 480 8 339
1960327N09161 1960 93 WP MM OPHELIA 1960-12-01 21:00:00 TS 13.8776 132.465 main 782 774 PPP______PPP__ WP261960 13.8925 132.355 125 -1 13.8425 132.598 9 940 0 0 13.8425 132.720 6 121 943 13.8925 132.355 TC 125 13.9034 132.411 4 126 13.8925 132.355 125 943 480 8 352
1960327N09161 1960 93 WP MM OPHELIA 1960-12-02 00:00:00 TS 14.2667 132.450 940 tokyo main 793 783 OOO______OOO__ jtwc_wp WP261960 14.3000 132.400 125 -1 14.2000 132.500 9 940 0 0 0 14.2000 132.600 6 116 944 14.3000 132.400 TC 125 14.3000 132.400 4 125 14.3000 132.400 125 943 480 8 1
1960327N09161 1960 93 WP MM OPHELIA 1960-12-02 03:00:00 TS 14.6528 132.468 main 807 807 PPP______PPP__ WP261960 14.7150 132.435 125 -1 14.5575 132.555 9 940 0 0 14.5574 132.533 6 116 941 14.7150 132.435 TC 125 14.6572 132.417 4 125 14.7150 132.435 125 940 510 8 8
1960327N09161 1960 93 WP MM OPHELIA 1960-12-02 06:00:00 TS 15.0179 132.548 940 tokyo main 819 819 OOO______OPO__ jtwc_wp WP261960 15.1000 132.500 125 -1 14.9000 132.700 9 940 0 0 0 14.9000 132.600 6 116 939 15.1000 132.500 TC 125 15.0075 132.490 4 125 15.1000 132.500 125 937 540 7 17
1960327N09161 1960 93 WP MM OPHELIA 1960-12-02 09:00:00 TS 15.3295 132.687 main 851 851 PPP______PPP__ WP261960 15.4225 132.592 125 -1 15.1775 132.850 9 940 0 0 15.1777 132.900 6 116 938 15.4225 132.592 TC 125 15.3541 132.592 4 125 15.4225 132.592 125 935 540 7 24
1960327N09161 1960 93 WP MM OPHELIA 1960-12-02 12:00:00 TS 15.6333 132.833 940 tokyo main 875 875 OOO______OOO__ jtwc_wp WP261960 15.7000 132.700 125 -1 15.5000 133.000 9 940 0 0 0 15.5000 133.200 6 116 938 15.7000 132.700 TC 125 15.7000 132.700 4 125 15.7000 132.700 125 934 540 7 20
1960327N09161 1960 93 WP MM OPHELIA 1960-12-02 15:00:00 TS 15.9662 132.932 main 904 904 PPP______PPP__ WP261960 15.9275 132.808 125 -1 15.9925 133.122 9 940 0 0 15.9924 133.245 6 121 936 15.9275 132.808 TC 125 16.0297 132.803 4 126 15.9275 132.808 125 933 510 7 13
1960327N09161 1960 93 WP MM OPHELIA 1960-12-02 18:00:00 TS 16.3271 133.000 940 tokyo main 929 929 OOO______OPO__ jtwc_wp WP261960 16.2000 132.900 125 -1 16.5000 133.200 9 940 0 0 0 16.5000 133.200 6 126 934 16.2000 132.900 TC 125 16.3625 132.902 4 127 16.2000 132.900 125 932 480 8 10
1960327N09161 1960 93 WP MM OPHELIA 1960-12-02 21:00:00 TS 16.7136 133.061 main 961 961 PPP______PPP__ WP261960 16.6125 132.972 127 -1 16.8650 133.245 9 937 0 0 16.8650 133.230 6 131 932 16.6125 132.972 TC 127 16.7141 132.975 4 128 16.6125 132.972 127 931 450 8 5
1960327N09161 1960 93 WP MM OPHELIA 1960-12-03 00:00:00 TS 17.1333 133.067 935 tokyo main 984 984 OOO______OOO__ jtwc_wp WP261960 17.1000 133.000 130 -1 17.2000 133.200 9 935 0 0 0 17.2000 133.200 6 136 930 17.1000 133.000 TC 130 17.1000 133.000 4 130 17.1000 133.000 130 930 420 9 355
1960327N09161 1960 93 WP MM OPHELIA 1960-12-03 03:00:00 TS 17.5849 132.987 main 1007 1004 PPP______PPP__ WP261960 17.6000 132.980 130 -1 17.5851 133.023 9 930 0 0 17.5851 133.023 6 140 927 17.6000 132.980 TC 130 17.5391 132.939 4 130 17.6000 132.980 130 929 420 9 348
1960327N09161 1960 93 WP MM OPHELIA 1960-12-03 06:00:00 TS 18.0521 132.855 925 tokyo main 1022 1013 OOO______OPO__ jtwc_wp WP261960 18.1000 132.900 130 -1 18.0000 132.800 9 925 0 0 0 18.0000 132.800 6 145 925 18.1000 132.900 TC 130 18.0126 132.831 4 130 18.1000 132.900 130 928 420 10 344
1960327N09161 1960 93 WP MM OPHELIA 1960-12-03 09:00:00 TS 18.5067 132.703 main 1024 1024 PPP______PPP__ WP261960 18.5500 132.750 130 -1 18.4425 132.635 9 925 0 0 18.4425 132.628 6 145 926 18.5500 132.750 TC 130 18.5048 132.708 4 130 18.5500 132.750 130 928 450 10 343
1960327N09161 1960 93 WP MM OPHELIA 1960-12-03 12:00:00 TS 18.9667 132.567 925 tokyo main 1044 1035 OOO______OOO__ jtwc_wp WP261960 19.0000 132.600 130 -1 18.9000 132.500 9 925 0 0 0 18.9000 132.500 6 145 927 19.0000 132.600 TC 130 19.0000 132.600 4 130 19.0000 132.600 130 929 480 10 346
1960327N09161 1960 93 WP MM OPHELIA 1960-12-03 15:00:00 TS 19.4230 132.464 main 1059 1057 PPP______PPP__ WP261960 19.5000 132.527 130 -1 19.3125 132.355 9 927 0 0 19.3125 132.413 6 140 928 19.5000 132.527 TC 130 19.4132 132.431 4 130 19.5000 132.527 130 929 480 10 351
1960327N09161 1960 93 WP MM OPHELIA 1960-12-03 18:00:00 TS 19.9060 132.417 930 tokyo main 1073 1073 OOO______OPO__ jtwc_wp WP261960 20.0000 132.500 130 -1 19.8000 132.300 9 930 0 0 0 19.8000 132.400 6 136 929 20.0000 132.500 TC 130 19.8357 132.302 4 130 20.0000 132.500 130 929 480 10 356
1960327N09161 1960 93 WP MM OPHELIA 1960-12-03 21:00:00 TS 20.4052 132.379 main 1082 1082 PPP______PPP__ WP261960 20.3972 132.404 130 -1 20.4622 132.353 9 932 0 0 20.4622 132.411 6 136 930 20.3972 132.404 TC 130 20.3154 132.296 4 130 20.3972 132.404 130 929 450 11 6
1960327N09161 1960 93 WP MM OPHELIA 1960-12-04 00:00:00 TS 21.0000 132.533 935 tokyo main 1106 1061 OOO______OOO__ jtwc_wp WP261960 20.9000 132.500 130 -1 21.2000 132.600 9 935 0 0 0 21.2000 132.600 6 136 931 20.9000 132.500 TC 130 20.9000 132.500 4 130 20.9000 132.500 130 930 420 14 23
1960327N09161 1960 93 WP MM OPHELIA 1960-12-04 03:00:00 TS 21.7221 132.975 main 1063 991 PPP______PPP__ WP261960 21.6899 132.965 130 -1 21.8392 133.010 9 935 0 0 21.8392 133.002 6 136 933 21.6899 132.965 TC 130 21.5844 132.943 4 127 21.6899 132.965 130 934 420 19 34
1960327N09161 1960 93 WP MM OPHELIA 1960-12-04 06:00:00 TS 22.5634 133.685 935 tokyo main 984 927 OOO______OPO__ jtwc_wp WP261960 22.6000 133.700 130 -1 22.6000 133.700 9 935 0 0 0 22.6000 133.700 6 136 935 22.6000 133.700 TC 130 22.3806 133.612 4 125 22.6000 133.700 130 939 420 23 40
1960327N09161 1960 93 WP MM OPHELIA 1960-12-04 09:00:00 TS 23.4672 134.571 main 921 874 PPP______PPP__ WP261960 23.4120 134.520 125 -1 23.6403 134.695 9 937 0 0 23.6403 134.695 6 131 940 23.4120 134.520 TC 125 23.2863 134.475 4 122 23.4120 134.520 125 944 420 26 43
1960327N09161 1960 93 WP MM OPHELIA 1960-12-04 12:00:00 TS 24.4667 135.633 940 tokyo main 870 837 OOO______OOO__ jtwc_wp WP261960 24.3000 135.500 120 -1 24.8000 135.900 9 940 0 0 0 24.8000 135.900 6 126 945 24.3000 135.500 TC 120 24.3000 135.500 4 120 24.3000 135.500 120 950 420 29 44
1960327N09161 1960 93 WP MM OPHELIA 1960-12-04 15:00:00 TS 25.5147 136.746 main 837 785 PPP______PPP__ WP261960 25.3314 136.570 115 -1 25.9148 137.143 9 945 0 0 25.9148 137.143 6 121 950 25.3314 136.570 TC 115 25.2645 136.477 4 113 25.3314 136.570 114 953 450 30 44
1960327N09161 1960 93 WP MM OPHELIA 1960-12-04 18:00:00 TS 26.6409 137.971 950 tokyo main 787 709 OOO______OPO__ jtwc_wp WP261960 26.5000 137.800 110 -1 27.0000 138.400 9 950 0 0 0 27.0000 138.400 6 116 955 26.5000 137.800 TC 110 26.3456 137.626 4 106 26.5000 137.800 108 957 480 32 44
1960327N09161 1960 93 WP MM OPHELIA 1960-12-04 21:00:00 TS 27.7621 139.213 main 704 647 PPP______PPP__ WP261960 27.6990 139.110 100 -1 27.9357 139.470 9 957 0 0 27.9357 139.470 6 111 960 27.6990 139.110 TC 100 27.6040 139.009 4 99 27.6990 139.110 100 962 510 34 45
1960327N09161 1960 93 WP MM OPHELIA 1960-12-05 00:00:00 TS 29.0667 140.700 965 tokyo main 639 539 OOO______OOO__ jtwc_wp WP261960 29.1000 140.700 90 -1 29.0000 140.700 9 965 0 0 0 29.0000 140.700 6 106 965 29.1000 140.700 TC 90 29.1000 140.700 4 92 29.1000 140.700 92 967 540 41 45
1960327N09161 1960 93 WP MM OPHELIA 1960-12-05 03:00:00 TS 30.6447 142.557 main 541 498 PPP______PPP__ WP261960 30.7108 142.640 85 -1 30.3453 142.316 9 970 0 0 30.3453 142.316 6 101 970 30.7108 142.640 TC 85 31.0451 142.790 4 86 30.7108 142.640 85 972 540 50 46
1960327N09161 1960 93 WP MM OPHELIA 1960-12-05 06:00:00 TS 32.4953 144.844 975 tokyo main 504 504 OOO______OPO__ jtwc_wp WP261960 32.6000 145.000 80 -1 32.0000 144.400 9 975 0 0 0 32.0000 144.400 5 97 975 32.6000 145.000 TC 80 33.1718 145.261 4 81 32.6000 145.000 78 978 540 58 47
1960327N09161 1960 93 WP MM OPHELIA 1960-12-05 09:00:00 TS 34.6484 147.592 main 619 619 PPP______PPP__ WP261960 34.8864 147.856 75 -1 33.9982 146.986 9 975 0 0 33.9982 146.986 5 97 975 34.8864 147.856 TC 75 35.2350 148.011 4 75 34.8864 147.856 74 981 540 63 49
1960327N09161 1960 93 WP MM OPHELIA 1960-12-05 12:00:00 TS 36.6667 150.600 975 tokyo main 804 804 OOO______OOO__ jtwc_wp WP261960 37.0000 150.900 70 -1 36.0000 150.000 9 975 0 0 0 36.0000 150.000 5 97 975 37.0000 150.900 TC 70 37.0000 150.900 4 70 37.0000 150.900 70 985 540 59 53
1960327N09161 1960 93 WP MM OPHELIA 1960-12-05 15:00:00 TS 38.1829 153.485 main 871 866 PPP______PPP__ WP261960 38.4475 153.550 70 -1 37.7248 153.236 9 975 0 0 37.7248 153.236 5 97 975 38.4475 153.550 TC 70 38.3055 153.785 4 68 38.4475 153.550 69 987 510 52 60
1960327N09161 1960 93 WP MM OPHELIA 1960-12-05 18:00:00 TS 39.2369 156.361 975 tokyo main 897 893 OOO______OPO__ jtwc_wp WP261960 39.4000 156.200 70 -1 39.0000 156.500 9 975 0 0 0 39.0000 156.500 5 97 975 39.4000 156.200 TC 70 39.2160 156.636 4 66 39.4000 156.200 68 989 480 48 69
1960327N09161 1960 93 WP MM OPHELIA 1960-12-05 21:00:00 TS 39.8574 159.244 main 989 989 PPP______PPP__ WP261960 39.9606 159.140 65 -1 39.7057 159.343 9 975 0 0 39.7057 159.343 5 92 975 39.9606 159.140 TC 65 39.8448 159.468 4 64 39.9606 159.140 65 991 420 46 78
1960327N09161 1960 93 WP MM OPHELIA 1960-12-06 00:00:00 TS 40.1800 162.260 975 tokyo main 1162 1162 OOO______OOO__ jtwc_wp WP261960 40.3000 162.300 60 -1 40.0000 162.200 9 975 0 0 0 40.0000 162.200 5 87 975 40.3000 162.300 TC 60 40.3000 162.300 2 62 40.3000 162.300 62 993 360 49 84
1960327N09161 1960 93 WP MM OPHELIA 1960-12-06 03:00:00 TS 40.3647 165.609 main 1323 1323 PPP______P_P__ WP261960 40.6507 165.666 60 -1 39.9958 165.525 9 976 0 0 39.9958 165.525 5 82 976 40.6507 165.666 TC 60 2 40.6965 165.713 61 994 360 53 85
1960327N09161 1960 93 WP MM OPHELIA 1960-12-06 06:00:00 MX 40.6188 169.169 978 tokyo main 1481 1481 OOO______O_O__ jtwc_wp WP261960 41.1000 169.300 60 -1 40.0000 169.000 6 978 0 0 0 40.0000 169.000 9 77 978 41.1000 169.300 TC 60 2 41.1000 169.300 60 995 360 56 81
1960327N09161 1960 93 WP MM OPHELIA 1960-12-06 09:00:00 MX 41.2773 172.910 main 1612 1612 PPP______P____ WP261960 41.8949 173.277 55 -1 40.4839 172.394 6 982 0 0 40.3936 172.479 9 982 41.8949 173.277 TC 55 2 60 77
1960327N09161 1960 93 WP MM OPHELIA 1960-12-06 12:00:00 MX 42.0000 176.933 986 tokyo main 1605 1418 OOO______O____ jtwc_wp WP261960 42.5000 177.400 50 -1 41.0000 176.000 6 986 0 0 0 41.0000 176.000 9 986 42.5000 177.400 TC 50 61 82
1960327N09161 1960 93 EP CP OPHELIA 1960-12-06 15:00:00 MX 42.1226 181.091 main 1410 1311 PP_______P____ WP261960 42.3637 -178.617 50 -1 41.1579 179.921 6 985 0 0 9 42.3637 -178.617 TC 50 59 91
1960327N09161 1960 93 EP CP OPHELIA 1960-12-06 18:00:00 MX 41.8889 184.889 main 1305 1244 OO_______O____ jtwc_wp WP261960 42.0000 -175.000 50 -1 41.0000 184.000 6 984 0 0 0 42.0000 185.000 TC 50 52 92
1960327N09161 1960 93 EP CP OPHELIA 1960-12-06 21:00:00 TS 41.9195 188.105 main 1241 1223 P________P____ WP261960 41.9195 -171.895 50 -1 6 0 0 41.9195 -171.895 TC 50 45 91
1960327N09161 1960 93 EP CP OPHELIA 1960-12-07 00:00:00 TS 41.8000 191.000 main 1232 1232 O________O____ jtwc_wp WP261960 41.8000 -169.000 50 -1 41.8000 191.000 TC 50 46 98
1960327N09161 1960 93 EP CP OPHELIA 1960-12-07 03:00:00 TS 41.2769 194.240 main 1307 1307 P________P____ WP261960 41.2769 -165.760 47 -1 41.2769 -165.760 TC 47 46 103
1960327N09161 1960 93 EP CP OPHELIA 1960-12-07 06:00:00 TS 40.8000 197.000 main 1412 1412 O________O____ jtwc_wp WP261960 40.8000 -163.000 45 -1 40.8000 197.000 TC 45 34 99
1960327N09161 1960 93 EP CP OPHELIA 1960-12-07 09:00:00 TS 40.7710 198.642 main 1454 1454 P________P____ WP261960 40.7710 -161.358 45 -1 40.7710 -161.358 TC 45 23 85
1960327N09161 1960 93 EP CP OPHELIA 1960-12-07 12:00:00 TS 41.0000 200.000 main 1467 1467 O________O____ jtwc_wp WP261960 41.0000 -160.000 45 -1 41.0000 200.000 TC 45 25 81
1960327N09161 1960 93 EP CP OPHELIA 1960-12-07 15:00:00 TS 41.1529 201.931 main 1501 1501 P________P____ WP261960 41.1529 -158.069 47 -1 41.1529 -158.069 TC 47 30 81
1960327N09161 1960 93 EP CP OPHELIA 1960-12-07 18:00:00 TS 41.5000 204.000 main 1545 1543 O________O____ jtwc_wp WP261960 41.5000 -156.000 50 -1 41.5000 204.000 TC 50 32 73
1960327N09161 1960 93 EP CP OPHELIA 1960-12-07 21:00:00 TS 42.1004 206.076 main 1553 1505 P________P____ WP261960 42.1004 -153.924 52 -1 42.1004 -153.924 TC 52 33 63
1960327N09161 1960 93 EP CP OPHELIA 1960-12-08 00:00:00 TS 43.0000 208.000 main 1500 1419 O________O____ jtwc_wp WP261960 43.0000 -152.000 55 -1 43.0000 208.000 TC 55 33 51
1960327N09161 1960 93 EP CP OPHELIA 1960-12-08 03:00:00 TS 44.1848 209.578 main 1409 1296 P________P____ WP261960 44.1848 -150.422 57 -1 44.1848 -150.422 TC 57 33 41
1960327N09161 1960 93 EP CP OPHELIA 1960-12-08 06:00:00 TS 45.5000 211.000 main 1289 1217 O________O____ jtwc_wp WP261960 45.5000 -149.000 60 -1 45.5000 211.000 TC 60 33 43
1960327N09161 1960 93 EP CP OPHELIA 1960-12-08 09:00:00 TS 46.5938 212.754 main 1212 1114 P________P____ WP261960 46.6611 -147.247 60 -1 46.5265 -147.245 TC 60 31 42
1960327N09161 1960 93 EP CP OPHELIA 1960-12-08 12:00:00 TS 47.8000 214.000 main 1108 989 O________O____ jtwc_wp WP261960 47.8000 -146.000 60 -1 47.8000 214.000 TC 60 29 19
1960327N09161 1960 93 EP CP OPHELIA 1960-12-08 15:00:00 TS 49.3435 214.123 main 980 798 P________P____ WP261960 48.9835 -145.882 55 -1 49.7034 -145.872 TC 55 33 354
1960327N09161 1960 93 EP CP OPHELIA 1960-12-08 18:00:00 TS 51.1000 213.500 main 789 O________O____ jtwc_wp WP261960 50.2000 -146.500 50 -1 52.0000 213.500 TC 50 36 347

Digital Typhoon Data and Search

About IBTrACS Database

This database is a web-friendly format of International Best Track Archive for Climate Stewardship (IBTrACS), a global best track data archive curated by NOAA dating back to 1842.

Updated: 2021-12-06